Time;durP1;ratioP1;P1;durP2;ratioP2;P2;SDS_P1;SDS_P2;PMS_P1;PMS_P2;Temp;Humidity;BMP_temperature;BMP_pressure;BME280_temperature;BME280_humidity;BME280_pressure;Samples;Min_cycle;Max_cycle;Signal;HPM_P1;HPM_P2
2022/02/07 00:01:10;;;;;;;10.48;1.60;;;;;;;;;;4989489;28;20469;-84
2022/02/07 00:06:04;;;;;;;11.95;1.88;;;;;;;;;;4993782;28;20127;-84
2022/02/07 00:08:31;;;;;;;11.77;2.00;;;;;;;;;;4993369;28;20049;-85
2022/02/07 00:10:56;;;;;;;12.82;1.65;;;;;;;;;;5004233;28;20185;-83
2022/02/07 00:13:22;;;;;;;8.88;1.40;;;;;;;;;;4991419;28;20146;-84
2022/02/07 00:15:47;;;;;;;13.43;1.63;;;;;;;;;;4985468;28;20038;-84
2022/02/07 00:18:13;;;;;;;12.88;1.70;;;;;;;;;;4984048;28;20023;-86
2022/02/07 00:20:38;;;;;;;22.00;2.70;;;;;;;;;;4982849;28;20046;-86
2022/02/07 00:23:03;;;;;;;10.35;1.83;;;;;;;;;;4988540;28;20026;-83
2022/02/07 00:25:29;;;;;;;12.15;1.52;;;;;;;;;;4999378;28;20045;-83
2022/02/07 00:27:55;;;;;;;7.63;1.27;;;;;;;;;;4990785;28;20026;-86
2022/02/07 00:30:21;;;;;;;10.50;1.70;;;;;;;;;;4985345;28;20486;-86
2022/02/07 00:32:48;;;;;;;12.95;1.70;;;;;;;;;;4990940;28;20108;-84
2022/02/07 00:35:17;;;;;;;12.23;1.65;;;;;;;;;;4985347;28;20476;-86
2022/02/07 00:37:45;;;;;;;9.55;1.10;;;;;;;;;;4990361;28;20035;-84
2022/02/07 00:43:00;;;;;;;10.13;1.20;;;;;;;;;;4993176;28;20038;-84
2022/02/07 00:45:41;;;;;;;6.68;1.30;;;;;;;;;;4987600;28;20030;-84
2022/02/07 00:48:09;;;;;;;7.15;1.02;;;;;;;;;;4997676;28;20034;-86
2022/02/07 00:50:36;;;;;;;6.65;1.20;;;;;;;;;;4986851;28;20034;-84
2022/02/07 00:53:02;;;;;;;7.43;1.00;;;;;;;;;;4984787;28;20026;-86
2022/02/07 00:55:28;;;;;;;10.05;1.23;;;;;;;;;;4997359;28;20067;-84
2022/02/07 00:57:53;;;;;;;9.23;1.30;;;;;;;;;;4986664;28;20214;-86
2022/02/07 01:00:19;;;;;;;10.35;1.33;;;;;;;;;;4986878;28;20045;-83
2022/02/07 01:02:45;;;;;;;8.15;0.90;;;;;;;;;;4989977;28;20022;-84
2022/02/07 01:05:12;;;;;;;7.78;1.10;;;;;;;;;;4986122;28;20030;-84
2022/02/07 01:07:37;;;;;;;7.07;1.10;;;;;;;;;;4990909;28;20026;-86
2022/02/07 01:10:04;;;;;;;6.95;0.93;;;;;;;;;;4984420;28;20045;-86
2022/02/07 01:15:06;;;;;;;2.83;0.52;;;;;;;;;;4984235;28;20034;-83
2022/02/07 01:18:17;;;;;;;2.08;0.30;;;;;;;;;;4986973;28;20030;-86
2022/02/07 01:47:44;;;;;;;6.05;0.60;;;;;;;;;;4996045;28;20041;-85
2022/02/07 01:53:10;;;;;;;5.07;0.80;;;;;;;;;;4986005;28;20554;-86
2022/02/07 01:56:19;;;;;;;7.95;1.35;;;;;;;;;;4984819;28;20034;-85
2022/02/07 01:58:25;;;;;;;9.65;1.10;;;;;;;;;;4978537;28;20109;-87
2022/02/07 02:00:51;;;;;;;9.77;1.10;;;;;;;;;;4985259;28;20470;-84
2022/02/07 02:03:16;;;;;;;12.50;2.10;;;;;;;;;;4981414;28;20034;-86
2022/02/07 02:05:42;;;;;;;9.43;1.35;;;;;;;;;;4982078;28;20170;-84
2022/02/07 02:08:09;;;;;;;5.82;0.85;;;;;;;;;;4984307;28;20029;-86
2022/02/07 02:10:37;;;;;;;5.47;1.20;;;;;;;;;;4987730;28;20490;-84
2022/02/07 02:13:13;;;;;;;7.15;1.08;;;;;;;;;;4984020;28;20031;-84
2022/02/07 02:16:06;;;;;;;5.85;1.17;;;;;;;;;;4980750;28;20030;-83
2022/02/07 02:37:30;;;;;;;5.00;1.15;;;;;;;;;;4991157;28;20027;-86
2022/02/07 02:47:54;;;;;;;10.05;1.55;;;;;;;;;;4984085;28;20030;-84
2022/02/07 02:50:36;;;;;;;7.80;1.48;;;;;;;;;;4983482;28;20057;-84
2022/02/07 02:53:07;;;;;;;5.43;1.10;;;;;;;;;;4989893;28;20092;-86
2022/02/07 02:55:34;;;;;;;6.97;1.35;;;;;;;;;;5000109;28;20487;-84
2022/02/07 02:57:59;;;;;;;11.77;1.33;;;;;;;;;;4986788;28;20061;-86
2022/02/07 03:00:26;;;;;;;9.40;1.42;;;;;;;;;;4977058;28;20038;-84
2022/02/07 03:02:52;;;;;;;7.80;1.08;;;;;;;;;;4978099;28;20034;-83
2022/02/07 03:05:17;;;;;;;10.43;1.70;;;;;;;;;;4984270;28;20054;-86
2022/02/07 03:07:44;;;;;;;9.30;1.83;;;;;;;;;;4991261;28;20026;-84
2022/02/07 03:10:11;;;;;;;10.23;1.42;;;;;;;;;;4993256;28;20034;-83
2022/02/07 03:12:59;;;;;;;8.15;1.60;;;;;;;;;;4984621;28;20104;-86
2022/02/07 03:18:08;;;;;;;11.48;1.17;;;;;;;;;;4984297;28;20176;-84
2022/02/07 03:20:33;;;;;;;18.83;1.55;;;;;;;;;;4999754;28;20129;-86
2022/02/07 03:22:59;;;;;;;10.18;1.63;;;;;;;;;;4981839;28;20026;-86
2022/02/07 03:25:24;;;;;;;8.40;1.30;;;;;;;;;;4987892;28;20080;-84
2022/02/07 03:27:49;;;;;;;13.25;1.80;;;;;;;;;;4983792;28;20022;-86
2022/02/07 03:30:14;;;;;;;14.68;2.25;;;;;;;;;;4985531;28;20026;-86
2022/02/07 03:32:40;;;;;;;7.55;1.58;;;;;;;;;;4986897;28;20046;-86
2022/02/07 03:35:06;;;;;;;13.02;1.67;;;;;;;;;;4983404;28;20035;-83
2022/02/07 03:37:31;;;;;;;8.90;1.48;;;;;;;;;;4987999;28;20113;-86
2022/02/07 03:39:57;;;;;;;10.23;1.52;;;;;;;;;;4992509;28;20114;-83
2022/02/07 03:42:22;;;;;;;8.32;1.27;;;;;;;;;;4990888;28;20047;-86
2022/02/07 03:44:47;;;;;;;7.60;1.25;;;;;;;;;;4981817;28;20057;-83
2022/02/07 03:47:13;;;;;;;10.00;1.40;;;;;;;;;;4984011;28;20072;-83
2022/02/07 03:49:38;;;;;;;9.13;1.10;;;;;;;;;;4984451;28;20151;-87
2022/02/07 03:52:08;;;;;;;9.90;1.65;;;;;;;;;;4983406;28;20391;-86
2022/02/07 03:54:34;;;;;;;10.82;1.40;;;;;;;;;;4985518;28;20019;-83
2022/02/07 03:56:59;;;;;;;15.80;2.17;;;;;;;;;;4988247;28;20073;-86
2022/02/07 03:59:24;;;;;;;11.13;1.60;;;;;;;;;;4979483;28;20065;-87
2022/02/07 04:01:50;;;;;;;9.82;1.63;;;;;;;;;;4980901;28;20434;-86
2022/02/07 04:04:15;;;;;;;11.95;1.70;;;;;;;;;;4983789;28;20022;-86
2022/02/07 04:06:42;;;;;;;14.60;1.70;;;;;;;;;;4994806;28;20395;-84
2022/02/07 04:09:10;;;;;;;13.65;1.75;;;;;;;;;;4983570;28;20045;-86
2022/02/07 04:11:42;;;;;;;13.20;1.83;;;;;;;;;;4985238;28;20475;-84
2022/02/07 04:14:08;;;;;;;13.27;1.63;;;;;;;;;;4985376;28;21582;-86
2022/02/07 04:16:37;;;;;;;11.15;1.90;;;;;;;;;;4988493;28;20038;-83
2022/02/07 04:19:14;;;;;;;8.68;1.70;;;;;;;;;;4989242;28;20057;-84
2022/02/07 04:21:42;;;;;;;8.00;1.40;;;;;;;;;;4986084;28;20114;-84
2022/02/07 04:24:08;;;;;;;16.48;2.00;;;;;;;;;;4990667;28;20569;-86
2022/02/07 04:26:33;;;;;;;10.63;1.75;;;;;;;;;;4986365;28;20027;-84
2022/02/07 04:28:58;;;;;;;10.98;1.40;;;;;;;;;;4989157;28;20018;-86
2022/02/07 04:31:24;;;;;;;12.70;1.92;;;;;;;;;;4994756;28;20030;-86
2022/02/07 04:33:49;;;;;;;18.67;1.80;;;;;;;;;;4993326;28;20041;-85
2022/02/07 04:36:15;;;;;;;14.13;1.88;;;;;;;;;;4991009;28;20023;-87
2022/02/07 04:38:41;;;;;;;9.27;1.50;;;;;;;;;;4971513;28;20041;-86
2022/02/07 04:41:07;;;;;;;16.85;2.65;;;;;;;;;;4983246;28;20034;-84
2022/02/07 04:43:33;;;;;;;14.10;1.70;;;;;;;;;;4989836;28;20057;-85
2022/02/07 04:48:46;;;;;;;12.30;1.92;;;;;;;;;;4992091;28;20047;-84
2022/02/07 04:51:42;;;;;;;12.48;1.75;;;;;;;;;;5000862;28;20038;-86
2022/02/07 04:59:48;;;;;;;10.60;1.50;;;;;;;;;;4987360;28;20106;-86
2022/02/07 05:04:48;;;;;;;12.65;1.80;;;;;;;;;;4982498;28;20018;-83
2022/02/07 05:15:26;;;;;;;12.88;1.67;;;;;;;;;;4986309;28;20030;-83
2022/02/07 05:17:51;;;;;;;13.32;1.92;;;;;;;;;;5001152;28;20031;-84
2022/02/07 05:20:16;;;;;;;9.27;1.70;;;;;;;;;;4982350;28;20152;-86
2022/02/07 05:22:42;;;;;;;13.05;2.42;;;;;;;;;;4989085;28;20372;-86
2022/02/07 05:25:07;;;;;;;10.32;1.42;;;;;;;;;;4980665;28;20023;-87
2022/02/07 05:27:33;;;;;;;19.70;1.98;;;;;;;;;;4989543;28;20026;-83
2022/02/07 05:29:58;;;;;;;13.18;1.88;;;;;;;;;;4989975;28;20026;-86
2022/02/07 05:32:24;;;;;;;11.18;2.00;;;;;;;;;;4991098;28;20441;-85
2022/02/07 05:34:51;;;;;;;13.43;2.75;;;;;;;;;;4987073;28;20192;-86
2022/02/07 05:37:17;;;;;;;12.93;2.03;;;;;;;;;;4982859;28;20022;-87
2022/02/07 05:39:46;;;;;;;11.80;1.73;;;;;;;;;;4989657;28;20030;-83
2022/02/07 05:42:11;;;;;;;10.93;1.52;;;;;;;;;;4986282;28;20034;-84
2022/02/07 05:44:38;;;;;;;12.65;1.70;;;;;;;;;;4990476;28;20034;-87
2022/02/07 05:47:05;;;;;;;8.70;1.65;;;;;;;;;;4983741;28;20026;-86
2022/02/07 05:49:30;;;;;;;13.32;2.03;;;;;;;;;;4999902;28;20060;-84
2022/02/07 05:51:55;;;;;;;13.18;1.70;;;;;;;;;;4991164;28;20026;-84
2022/02/07 05:54:22;;;;;;;12.10;1.65;;;;;;;;;;4985511;28;20034;-84
2022/02/07 05:56:47;;;;;;;15.95;2.03;;;;;;;;;;4986114;28;20121;-86
2022/02/07 05:59:12;;;;;;;11.48;1.90;;;;;;;;;;4982066;28;20125;-83
2022/02/07 06:01:38;;;;;;;11.80;1.95;;;;;;;;;;4982708;28;20034;-84
2022/02/07 06:04:03;;;;;;;15.65;2.42;;;;;;;;;;4990253;28;20029;-83
2022/02/07 06:06:29;;;;;;;13.02;1.80;;;;;;;;;;4983425;28;20063;-84
2022/02/07 06:08:54;;;;;;;14.27;2.25;;;;;;;;;;4988204;28;20026;-87
2022/02/07 06:11:19;;;;;;;11.57;2.08;;;;;;;;;;4990073;28;20037;-85
2022/02/07 06:13:45;;;;;;;18.10;2.28;;;;;;;;;;4991577;28;20073;-86
2022/02/07 06:16:17;;;;;;;7.90;1.25;;;;;;;;;;4985075;28;20031;-85
2022/02/07 06:18:43;;;;;;;10.73;1.70;;;;;;;;;;4987867;28;20533;-87
2022/02/07 06:21:11;;;;;;;14.88;1.92;;;;;;;;;;4984414;28;20034;-86
2022/02/07 06:23:36;;;;;;;14.23;1.88;;;;;;;;;;4996009;28;20081;-86
2022/02/07 06:26:02;;;;;;;12.43;2.08;;;;;;;;;;4981952;28;20034;-86
2022/02/07 06:28:27;;;;;;;7.80;1.60;;;;;;;;;;4983169;28;20372;-86
2022/02/07 06:30:53;;;;;;;13.13;2.05;;;;;;;;;;4980526;28;20034;-84
2022/02/07 06:33:18;;;;;;;11.65;1.40;;;;;;;;;;4982930;28;20116;-86
2022/02/07 06:35:43;;;;;;;10.15;1.60;;;;;;;;;;4981988;28;20073;-84
2022/02/07 06:38:08;;;;;;;12.68;1.85;;;;;;;;;;4979158;28;20109;-86
2022/02/07 06:40:34;;;;;;;11.70;1.70;;;;;;;;;;4978982;28;20031;-84
2022/02/07 06:42:59;;;;;;;9.60;1.50;;;;;;;;;;4982253;28;20026;-86
2022/02/07 06:45:24;;;;;;;14.00;1.35;;;;;;;;;;4979991;28;20042;-86
2022/02/07 06:47:53;;;;;;;13.90;1.60;;;;;;;;;;4994295;28;20383;-87
2022/02/07 06:50:18;;;;;;;11.48;1.80;;;;;;;;;;4991537;28;20041;-83
2022/02/07 06:52:44;;;;;;;10.68;1.60;;;;;;;;;;4986772;28;20387;-86
2022/02/07 06:55:09;;;;;;;10.90;1.55;;;;;;;;;;4982804;28;20042;-87
2022/02/07 06:57:35;;;;;;;8.40;1.20;;;;;;;;;;4984453;28;20030;-83
2022/02/07 07:00:03;;;;;;;8.65;1.23;;;;;;;;;;4986596;28;20494;-85
2022/02/07 07:02:29;;;;;;;10.38;1.73;;;;;;;;;;4994770;28;20026;-84
2022/02/07 07:04:57;;;;;;;8.38;1.80;;;;;;;;;;4990659;28;20155;-87
2022/02/07 07:07:23;;;;;;;7.43;1.55;;;;;;;;;;4999144;28;20088;-87
2022/02/07 07:09:48;;;;;;;12.75;1.85;;;;;;;;;;4984740;28;20171;-84
2022/02/07 07:12:15;;;;;;;14.13;1.60;;;;;;;;;;4996737;28;20056;-87
2022/02/07 07:14:45;;;;;;;13.13;1.67;;;;;;;;;;4984033;28;20030;-87
2022/02/07 07:17:11;;;;;;;10.88;1.50;;;;;;;;;;4983743;28;20038;-85
2022/02/07 07:19:36;;;;;;;10.88;1.65;;;;;;;;;;4986706;28;20062;-84
2022/02/07 07:22:04;;;;;;;8.68;1.58;;;;;;;;;;4988670;28;20113;-84
2022/02/07 07:24:29;;;;;;;9.02;1.30;;;;;;;;;;5000289;28;20026;-84
2022/02/07 07:26:55;;;;;;;9.68;1.30;;;;;;;;;;4991124;28;20041;-86
2022/02/07 07:29:33;;;;;;;9.65;1.75;;;;;;;;;;4991407;28;20033;-87
2022/02/07 07:32:03;;;;;;;10.38;1.67;;;;;;;;;;4985915;28;20073;-86
2022/02/07 07:34:29;;;;;;;11.10;1.77;;;;;;;;;;4989634;28;20026;-87
2022/02/07 07:36:55;;;;;;;16.42;2.00;;;;;;;;;;4984969;28;20492;-84
2022/02/07 07:39:21;;;;;;;15.77;1.75;;;;;;;;;;4990213;28;20041;-87
2022/02/07 07:41:47;;;;;;;10.15;1.35;;;;;;;;;;4997681;28;20040;-86
2022/02/07 07:44:14;;;;;;;15.02;2.03;;;;;;;;;;4991262;28;20034;-84
2022/02/07 07:46:47;;;;;;;15.38;1.83;;;;;;;;;;4989110;28;20110;-84
2022/02/07 07:49:18;;;;;;;9.02;1.42;;;;;;;;;;4992764;28;20381;-84
2022/02/07 07:51:51;;;;;;;17.65;2.38;;;;;;;;;;4991907;28;20511;-87
2022/02/07 07:54:26;;;;;;;;;;;;;;;;;;4993309;28;20396;-86
2022/02/07 08:02:24;;;;;;;11.48;1.73;;;;;;;;;;4983489;28;20176;-83
2022/02/07 08:04:51;;;;;;;14.45;2.28;;;;;;;;;;4989255;28;20034;-87
2022/02/07 08:07:20;;;;;;;11.45;2.10;;;;;;;;;;4991000;28;20054;-84
2022/02/07 08:12:13;;;;;;;9.35;1.73;;;;;;;;;;4986475;28;20113;-87
2022/02/07 08:14:39;;;;;;;15.00;2.50;;;;;;;;;;4987845;28;20030;-84
2022/02/07 08:17:06;;;;;;;14.73;2.55;;;;;;;;;;4987224;28;20019;-84
2022/02/07 08:19:33;;;;;;;16.33;2.45;;;;;;;;;;5007334;28;20130;-87
2022/02/07 08:21:58;;;;;;;10.75;1.92;;;;;;;;;;4984535;28;20023;-86
2022/02/07 08:24:24;;;;;;;13.93;2.40;;;;;;;;;;4991136;28;20053;-84
2022/02/07 08:26:52;;;;;;;13.20;1.90;;;;;;;;;;4986577;28;20485;-86
2022/02/07 08:29:18;;;;;;;14.02;2.60;;;;;;;;;;4988478;28;20140;-87
2022/02/07 08:31:43;;;;;;;15.35;1.88;;;;;;;;;;4992177;28;20117;-84
2022/02/07 08:34:09;;;;;;;18.83;2.38;;;;;;;;;;5001830;28;20026;-84
2022/02/07 08:36:35;;;;;;;11.43;2.05;;;;;;;;;;4989739;28;20533;-85
2022/02/07 08:39:02;;;;;;;10.88;1.75;;;;;;;;;;4996170;28;20034;-84
2022/02/07 08:41:28;;;;;;;19.23;2.47;;;;;;;;;;4990473;28;20085;-86
2022/02/07 08:43:54;;;;;;;13.90;2.78;;;;;;;;;;4985200;28;20046;-86
2022/02/07 08:46:20;;;;;;;15.00;1.95;;;;;;;;;;4987359;28;20058;-87
2022/02/07 08:48:46;;;;;;;13.27;2.05;;;;;;;;;;4992144;28;20042;-84
2022/02/07 08:51:11;;;;;;;13.05;2.00;;;;;;;;;;4993246;28;20026;-84
2022/02/07 08:53:41;;;;;;;13.48;2.03;;;;;;;;;;4983469;28;20041;-84
2022/02/07 08:56:08;;;;;;;13.77;2.00;;;;;;;;;;4988135;28;20126;-84
2022/02/07 08:58:36;;;;;;;15.25;2.30;;;;;;;;;;4991686;28;20026;-83
2022/02/07 09:11:11;;;;;;;17.15;1.90;;;;;;;;;;4989698;28;20426;-84
2022/02/07 09:13:39;;;;;;;11.15;1.58;;;;;;;;;;5004639;28;20114;-83
2022/02/07 09:18:39;;;;;;;12.05;2.03;;;;;;;;;;4986076;28;20030;-85
2022/02/07 09:21:06;;;;;;;14.05;1.77;;;;;;;;;;4987775;28;20038;-87
2022/02/07 09:23:33;;;;;;;20.63;2.08;;;;;;;;;;5006724;28;20082;-83
2022/02/07 09:25:59;;;;;;;14.90;1.88;;;;;;;;;;4995579;28;20399;-87
2022/02/07 09:28:24;;;;;;;14.13;2.35;;;;;;;;;;4992352;28;20117;-85
2022/02/07 09:30:52;;;;;;;20.25;3.15;;;;;;;;;;4993347;28;20042;-83
2022/02/07 09:33:18;;;;;;;8.80;1.75;;;;;;;;;;4990083;28;20092;-84
2022/02/07 09:35:48;;;;;;;15.68;2.55;;;;;;;;;;4987208;28;20464;-86
2022/02/07 09:38:13;;;;;;;12.98;1.95;;;;;;;;;;4995346;28;20552;-83
2022/02/07 09:40:42;;;;;;;16.52;1.95;;;;;;;;;;4990790;28;20124;-83
2022/02/07 09:43:13;;;;;;;19.80;2.00;;;;;;;;;;4989879;28;20037;-86
2022/02/07 09:45:41;;;;;;;12.75;2.05;;;;;;;;;;4991651;28;20439;-87
2022/02/07 09:48:08;;;;;;;14.45;2.00;;;;;;;;;;4990071;28;20018;-85
2022/02/07 09:50:35;;;;;;;13.73;1.98;;;;;;;;;;5002658;28;20026;-86
2022/02/07 09:53:04;;;;;;;18.65;2.10;;;;;;;;;;4980936;28;20038;-84
2022/02/07 09:55:30;;;;;;;14.70;2.08;;;;;;;;;;4986328;28;20027;-83
2022/02/07 09:57:56;;;;;;;11.18;1.70;;;;;;;;;;4992810;28;20049;-83
2022/02/07 10:00:30;;;;;;;14.05;1.90;;;;;;;;;;4989658;28;20060;-83
2022/02/07 10:03:09;;;;;;;13.93;2.45;;;;;;;;;;4990161;28;20046;-86
2022/02/07 10:05:54;;;;;;;12.52;1.63;;;;;;;;;;4986601;28;20053;-84
2022/02/07 10:11:25;;;;;;;18.25;1.80;;;;;;;;;;4991439;28;20075;-83
2022/02/07 10:14:01;;;;;;;12.00;1.75;;;;;;;;;;4990705;28;20084;-86
2022/02/07 10:39:10;;;;;;;11.32;2.15;;;;;;;;;;4981340;28;20022;-83
2022/02/07 10:44:31;;;;;;;16.92;2.03;;;;;;;;;;4984305;28;20031;-84
2022/02/07 10:46:57;;;;;;;20.73;2.50;;;;;;;;;;4987881;28;20034;-83
2022/02/07 10:49:22;;;;;;;9.80;1.58;;;;;;;;;;4994795;28;20689;-86
2022/02/07 10:51:58;;;;;;;15.02;1.83;;;;;;;;;;4979094;28;20033;-86
2022/02/07 10:54:24;;;;;;;12.60;1.50;;;;;;;;;;4983144;28;20046;-83
2022/02/07 10:56:51;;;;;;;14.60;2.30;;;;;;;;;;4982736;28;20120;-83
2022/02/07 10:59:20;;;;;;;13.80;2.92;;;;;;;;;;4986545;28;20027;-86
2022/02/07 11:04:18;;;;;;;14.90;1.90;;;;;;;;;;4983178;28;20112;-83
2022/02/07 11:06:47;;;;;;;11.82;1.58;;;;;;;;;;4991467;28;20022;-87
2022/02/07 11:09:26;;;;;;;16.83;2.42;;;;;;;;;;4989087;28;20030;-87
2022/02/07 11:12:13;;;;;;;14.10;2.50;;;;;;;;;;4984137;28;20034;-83
2022/02/07 11:14:56;;;;;;;13.82;1.55;;;;;;;;;;4984477;28;20034;-86
2022/02/07 11:20:58;;;;;;;16.05;2.17;;;;;;;;;;4982600;28;20038;-87
2022/02/07 11:23:27;;;;;;;13.10;2.10;;;;;;;;;;4983018;28;20442;-83
2022/02/07 11:26:01;;;;;;;9.32;1.52;;;;;;;;;;4987290;28;20061;-87
2022/02/07 11:28:30;;;;;;;13.15;1.58;;;;;;;;;;4985721;28;20153;-86
2022/02/07 11:31:05;;;;;;;16.90;1.73;;;;;;;;;;4988491;28;20042;-82
2022/02/07 11:33:51;;;;;;;12.30;1.50;;;;;;;;;;4991033;28;20018;-83
2022/02/07 11:36:31;;;;;;;11.82;1.70;;;;;;;;;;5005585;28;20034;-86
2022/02/07 11:39:10;;;;;;;12.10;1.50;;;;;;;;;;4986287;28;20440;-86
2022/02/07 11:42:00;;;;;;;10.57;2.08;;;;;;;;;;4994223;28;20554;-87
2022/02/07 11:44:35;;;;;;;11.40;1.80;;;;;;;;;;5003227;28;20031;-86
2022/02/07 11:47:28;;;;;;;11.55;1.65;;;;;;;;;;4991105;28;20041;-83
2022/02/07 11:49:59;;;;;;;10.30;1.60;;;;;;;;;;4988162;28;20026;-87
2022/02/07 11:52:43;;;;;;;14.30;1.65;;;;;;;;;;4993975;28;20034;-87
2022/02/07 11:55:12;;;;;;;13.95;1.63;;;;;;;;;;4995195;28;20030;-86
2022/02/07 11:57:43;;;;;;;7.90;1.25;;;;;;;;;;4992029;28;20503;-86
2022/02/07 12:00:13;;;;;;;13.43;1.75;;;;;;;;;;4992095;28;20501;-86
2022/02/07 12:02:47;;;;;;;6.35;1.23;;;;;;;;;;4985913;28;20030;-87
2022/02/07 12:05:16;;;;;;;11.77;1.75;;;;;;;;;;4992748;28;20494;-82
2022/02/07 12:07:42;;;;;;;8.85;1.52;;;;;;;;;;4992629;28;20027;-86
2022/02/07 12:13:01;;;;;;;8.45;1.13;;;;;;;;;;4991914;28;20113;-82
2022/02/07 12:15:37;;;;;;;14.55;1.65;;;;;;;;;;4987497;28;20502;-84
2022/02/07 12:18:12;;;;;;;6.35;1.13;;;;;;;;;;4985650;28;20490;-87
2022/02/07 12:20:38;;;;;;;14.00;1.50;;;;;;;;;;4990573;28;20535;-87
2022/02/07 12:23:04;;;;;;;8.90;1.60;;;;;;;;;;4992131;28;20064;-86
2022/02/07 12:25:29;;;;;;;8.27;1.30;;;;;;;;;;4996012;28;20054;-84
2022/02/07 12:27:58;;;;;;;11.25;1.52;;;;;;;;;;4986409;28;20027;-83
2022/02/07 12:30:44;;;;;;;8.10;1.55;;;;;;;;;;4993459;28;20043;-83
2022/02/07 12:33:10;;;;;;;13.88;1.85;;;;;;;;;;4983246;28;20492;-86
2022/02/07 12:35:36;;;;;;;12.13;1.73;;;;;;;;;;4991404;28;20068;-86
2022/02/07 12:38:02;;;;;;;9.38;1.52;;;;;;;;;;4991306;28;20073;-87
2022/02/07 12:40:27;;;;;;;9.65;1.90;;;;;;;;;;4992110;28;20034;-86
2022/02/07 12:42:57;;;;;;;12.00;1.77;;;;;;;;;;4990103;28;20030;-86
2022/02/07 12:45:26;;;;;;;10.15;1.95;;;;;;;;;;4989201;28;20050;-87
2022/02/07 12:47:55;;;;;;;9.43;1.45;;;;;;;;;;4995988;28;20026;-82
2022/02/07 12:50:22;;;;;;;11.52;1.63;;;;;;;;;;4986289;28;20019;-86
2022/02/07 12:52:49;;;;;;;10.50;1.50;;;;;;;;;;4988687;28;20034;-83
2022/02/07 12:55:16;;;;;;;10.18;1.73;;;;;;;;;;4989444;28;20026;-82
2022/02/07 12:57:43;;;;;;;14.52;1.60;;;;;;;;;;4990400;28;20018;-83
2022/02/07 13:00:15;;;;;;;11.85;2.15;;;;;;;;;;4998953;28;20530;-83
2022/02/07 13:02:44;;;;;;;9.60;1.70;;;;;;;;;;4982664;28;20031;-87
2022/02/07 13:05:16;;;;;;;9.45;1.40;;;;;;;;;;4989615;28;20416;-83
2022/02/07 13:07:46;;;;;;;7.93;1.42;;;;;;;;;;4979250;28;20023;-84
2022/02/07 13:10:15;;;;;;;9.95;1.80;;;;;;;;;;4988254;28;20023;-86
2022/02/07 13:15:23;;;;;;;7.82;1.70;;;;;;;;;;4983352;28;20023;-82
2022/02/07 13:18:01;;;;;;;7.15;1.35;;;;;;;;;;4992195;28;20031;-82
2022/02/07 13:20:27;;;;;;;8.70;1.35;;;;;;;;;;4990462;28;20440;-87
2022/02/07 13:23:10;;;;;;;12.95;1.98;;;;;;;;;;4982228;28;20046;-83
2022/02/07 13:25:46;;;;;;;7.45;1.30;;;;;;;;;;4993587;28;20592;-86
2022/02/07 13:28:15;;;;;;;11.77;1.73;;;;;;;;;;4991788;28;20057;-82
2022/02/07 13:30:43;;;;;;;10.75;1.75;;;;;;;;;;4989512;28;20125;-83
2022/02/07 13:33:08;;;;;;;10.73;1.63;;;;;;;;;;4992240;28;20042;-83
2022/02/07 13:35:42;;;;;;;8.77;1.20;;;;;;;;;;4988465;28;20057;-82
2022/02/07 13:38:08;;;;;;;10.25;1.60;;;;;;;;;;5001469;28;20031;-82
2022/02/07 13:40:45;;;;;;;6.18;1.33;;;;;;;;;;5007773;28;20117;-87
2022/02/07 13:43:20;;;;;;;10.55;1.83;;;;;;;;;;4990324;28;20057;-86
2022/02/07 13:45:55;;;;;;;11.25;1.58;;;;;;;;;;5003539;28;20034;-82
2022/02/07 13:48:22;;;;;;;11.07;1.90;;;;;;;;;;4991564;28;20067;-87
2022/02/07 13:50:53;;;;;;;7.03;1.55;;;;;;;;;;4990407;28;20487;-83
2022/02/07 13:53:18;;;;;;;7.80;1.10;;;;;;;;;;5001418;28;20033;-82
2022/02/07 13:55:47;;;;;;;8.32;1.23;;;;;;;;;;4985676;28;20433;-83
2022/02/07 13:58:14;;;;;;;6.05;1.00;;;;;;;;;;4989150;28;20022;-86
2022/02/07 14:00:48;;;;;;;4.35;1.20;;;;;;;;;;4998298;28;20035;-86
2022/02/07 14:03:31;;;;;;;5.45;1.20;;;;;;;;;;4992433;28;20053;-82
2022/02/07 14:06:07;;;;;;;8.95;1.15;;;;;;;;;;5003647;28;20053;-83
2022/02/07 14:08:42;;;;;;;9.45;1.20;;;;;;;;;;5005156;28;20050;-86
2022/02/07 14:11:10;;;;;;;9.00;1.30;;;;;;;;;;4982586;28;20030;-83
2022/02/07 14:13:37;;;;;;;8.30;1.73;;;;;;;;;;5000217;28;20038;-85
2022/02/07 14:16:04;;;;;;;6.85;1.15;;;;;;;;;;4994112;28;20037;-85
2022/02/07 14:18:32;;;;;;;8.25;1.55;;;;;;;;;;4979120;28;20026;-86
2022/02/07 14:20:57;;;;;;;10.00;1.42;;;;;;;;;;4990075;28;20054;-86
2022/02/07 14:23:22;;;;;;;7.55;1.10;;;;;;;;;;4985919;28;20040;-82
2022/02/07 14:25:52;;;;;;;12.02;2.47;;;;;;;;;;4989613;28;20129;-83
2022/02/07 14:28:18;;;;;;;9.00;1.40;;;;;;;;;;4984734;28;20704;-87
2022/02/07 14:30:44;;;;;;;9.45;1.27;;;;;;;;;;4994275;28;20030;-86
2022/02/07 14:33:10;;;;;;;10.82;1.88;;;;;;;;;;4987001;28;20569;-86
2022/02/07 14:35:35;;;;;;;7.32;1.67;;;;;;;;;;4985222;28;20057;-86
2022/02/07 14:38:03;;;;;;;6.28;1.15;;;;;;;;;;4981535;28;20033;-83
2022/02/07 14:40:30;;;;;;;13.98;1.52;;;;;;;;;;4993590;28;20057;-83
2022/02/07 14:42:58;;;;;;;7.80;1.20;;;;;;;;;;4985432;28;20038;-85
2022/02/07 14:45:31;;;;;;;10.55;1.30;;;;;;;;;;4982825;28;20034;-84
2022/02/07 14:48:01;;;;;;;10.00;1.30;;;;;;;;;;4980398;28;20053;-82
2022/02/07 14:50:27;;;;;;;4.97;1.17;;;;;;;;;;5000462;28;20037;-83
2022/02/07 14:52:53;;;;;;;8.82;1.20;;;;;;;;;;4981864;28;20084;-85
2022/02/07 14:55:20;;;;;;;8.55;1.38;;;;;;;;;;4987575;28;20033;-84
2022/02/07 14:57:46;;;;;;;7.50;1.60;;;;;;;;;;4977800;28;20487;-86
2022/02/07 15:00:17;;;;;;;8.13;1.17;;;;;;;;;;4981398;28;20026;-86
2022/02/07 15:02:44;;;;;;;9.50;1.35;;;;;;;;;;4979726;28;20037;-87
2022/02/07 15:05:10;;;;;;;3.97;0.82;;;;;;;;;;4979145;28;20033;-84
2022/02/07 15:07:36;;;;;;;6.25;1.00;;;;;;;;;;4977153;28;20050;-84
2022/02/07 15:10:03;;;;;;;6.90;0.90;;;;;;;;;;4979550;28;20035;-86
2022/02/07 15:12:28;;;;;;;9.32;1.50;;;;;;;;;;4981726;28;20059;-83
2022/02/07 15:14:54;;;;;;;5.47;1.00;;;;;;;;;;4978753;28;20130;-83
2022/02/07 15:17:21;;;;;;;4.15;0.85;;;;;;;;;;4984179;28;20077;-86
2022/02/07 15:19:47;;;;;;;8.68;1.02;;;;;;;;;;4985172;28;20061;-83
2022/02/07 15:22:12;;;;;;;4.25;0.80;;;;;;;;;;4982162;28;20476;-86
2022/02/07 15:24:38;;;;;;;4.72;0.80;;;;;;;;;;4977604;28;20072;-84
2022/02/07 15:27:05;;;;;;;6.03;1.05;;;;;;;;;;4988738;28;20607;-86
2022/02/07 15:29:32;;;;;;;8.23;1.00;;;;;;;;;;4991667;28;20061;-86
2022/02/07 15:32:10;;;;;;;5.05;0.80;;;;;;;;;;4982715;28;20033;-83
2022/02/07 15:34:36;;;;;;;7.13;1.05;;;;;;;;;;4978195;28;20039;-84
2022/02/07 15:37:03;;;;;;;10.02;1.42;;;;;;;;;;4986850;28;20125;-84
2022/02/07 15:39:28;;;;;;;7.05;0.95;;;;;;;;;;4985322;28;20602;-83
2022/02/07 15:41:54;;;;;;;6.85;0.88;;;;;;;;;;4986762;28;20121;-86
2022/02/07 15:44:20;;;;;;;6.25;0.82;;;;;;;;;;4983328;28;20065;-83
2022/02/07 15:46:47;;;;;;;5.40;0.90;;;;;;;;;;4981055;28;20541;-83
2022/02/07 15:49:12;;;;;;;9.05;1.70;;;;;;;;;;4980606;28;20034;-83
2022/02/07 15:51:38;;;;;;;9.60;1.48;;;;;;;;;;4980334;28;20605;-86
2022/02/07 15:54:06;;;;;;;5.30;1.10;;;;;;;;;;4977915;28;20494;-84
2022/02/07 15:56:32;;;;;;;7.75;0.88;;;;;;;;;;4979542;28;20053;-83
2022/02/07 15:58:58;;;;;;;10.57;1.00;;;;;;;;;;4979065;28;20039;-84
2022/02/07 16:01:24;;;;;;;5.38;0.70;;;;;;;;;;4981884;28;20113;-85
2022/02/07 16:03:49;;;;;;;3.58;0.70;;;;;;;;;;4975387;28;21377;-84
2022/02/07 16:06:16;;;;;;;5.65;0.88;;;;;;;;;;4982830;28;20040;-83
2022/02/07 16:08:43;;;;;;;4.78;1.05;;;;;;;;;;4983120;28;20062;-83
2022/02/07 16:11:11;;;;;;;6.50;0.70;;;;;;;;;;4984270;28;20039;-85
2022/02/07 16:13:38;;;;;;;6.63;1.10;;;;;;;;;;4994916;28;20472;-82
2022/02/07 16:16:06;;;;;;;9.45;1.38;;;;;;;;;;4989246;28;20482;-82
2022/02/07 16:18:31;;;;;;;3.85;0.93;;;;;;;;;;4986499;28;20518;-83
2022/02/07 16:20:58;;;;;;;4.05;0.77;;;;;;;;;;4983131;28;20082;-83
2022/02/07 16:23:23;;;;;;;2.35;0.63;;;;;;;;;;4985271;28;20431;-82
2022/02/07 16:25:50;;;;;;;4.47;0.85;;;;;;;;;;4982951;28;20039;-83
2022/02/07 16:28:17;;;;;;;7.30;0.80;;;;;;;;;;4984323;28;20463;-86
2022/02/07 16:30:43;;;;;;;5.50;0.70;;;;;;;;;;4987498;28;20082;-85
2022/02/07 16:33:08;;;;;;;8.05;1.05;;;;;;;;;;4991529;28;20490;-83
2022/02/07 16:35:38;;;;;;;9.82;1.80;;;;;;;;;;4987292;28;20546;-85
2022/02/07 16:38:03;;;;;;;4.75;1.00;;;;;;;;;;4987068;28;20032;-86
2022/02/07 16:40:29;;;;;;;7.57;1.20;;;;;;;;;;4986992;28;20031;-83
2022/02/07 16:42:54;;;;;;;4.80;1.10;;;;;;;;;;4994553;28;20026;-85
2022/02/07 16:45:26;;;;;;;6.82;1.35;;;;;;;;;;4982821;28;20073;-83
2022/02/07 16:47:51;;;;;;;6.30;1.00;;;;;;;;;;4982322;28;20043;-83
2022/02/07 16:50:17;;;;;;;7.85;1.30;;;;;;;;;;4988926;28;20454;-85
2022/02/07 16:52:43;;;;;;;4.30;0.98;;;;;;;;;;4983188;28;20462;-85
2022/02/07 16:55:10;;;;;;;5.82;0.90;;;;;;;;;;4981164;28;20385;-84
2022/02/07 16:57:35;;;;;;;6.20;1.08;;;;;;;;;;4986475;28;20034;-83
2022/02/07 17:00:04;;;;;;;5.97;0.85;;;;;;;;;;4983907;28;20036;-83
2022/02/07 17:02:29;;;;;;;3.63;0.75;;;;;;;;;;4980540;28;20033;-83
2022/02/07 17:04:55;;;;;;;6.60;0.77;;;;;;;;;;4990380;28;20033;-86
2022/02/07 17:07:20;;;;;;;3.38;0.60;;;;;;;;;;4986108;28;20018;-83
2022/02/07 17:09:46;;;;;;;4.93;0.90;;;;;;;;;;4986206;28;20031;-86